Point Hope, AK

9:05 AM AKST on February 25, 2017 (GMT -0900)
Point Hope | | Change Station
Active Advisory: Winter Storm Warning

Elev 13 ft 68.35 °N, 166.80 °W | Updated 9 minutes ago

Snow
Snow
11 °F
Feels Like -5 °F
N
15
Wind Variable Wind from East

Today
High -- | Low -- °F
--% Chance of Precip.
Yesterday
High -- | Low -- °F
Precip. -- in
Pressure 29.99 in
Visibility 2.0 miles
Clouds Scattered Clouds 800 ft
Overcast 2000 ft
Windchill -5 °F
Dew Point 9 °F
Humidity 92%
Rainfall 0.00 in
Snow Depth Not available.
9:42 AM 6:59 PM
Waning Crescent, 1% visible
METAR PAPO 251756Z AUTO 09013KT 2SM -SN BR SCT008 OVC020 M12/M13 A2999 RMK AO2 SNB00 SLP154 P0000 60000 T11171128 11117 21217 58054 FZRANO
Pressure 29.99 in
Visibility 2.0 miles
Clouds Scattered Clouds 800 ft
Overcast 2000 ft
Windchill -5 °F
Dew Point 9 °F
Humidity 92%
Rainfall 0.00 in
Snow Depth Not available.
9:42 AM 6:59 PM
Waning Crescent, 1% visible
METAR PAPO 251756Z AUTO 09013KT 2SM -SN BR SCT008 OVC020 M12/M13 A2999 RMK AO2 SNB00 SLP154 P0000 60000 T11171128 11117 21217 58054 FZRANO

Get Your Daily Forecast Email!

Thanks for signing up!

Be on the lookout for a verification email in your inbox.

You'll start receiving the daily forecast at 8 AM.

×

10-Day Weather Forecast

Almanac

Astronomy

Feb. 25, 2017 Rise Set
Actual Time
Civil Twilight
Nautical Twilight
Astronomical Twilight
Moon
Length of Visible Light
Length of Day
Tomorrow will be .
, % of the Moon is Illuminated

Today's Extremes

State Highs State Lows

Community

WunderPhotos

Upload Photos

1,962,540 photos uploaded!

WunderBlog® & News

Nearby

Air Quality

  Air Quality AQ Index Pollutant
Not available.

Snow Depth

Station Depth Elevation

Earthquake Activity

City Distance Mag. Time & Date
Minimum magnitude displayed is 2.5.

Coastal Water Temperatures

Place Temperature

Stations

Nearby Weather Stations

Station Location Temp. Windchill Dew Point Humidity Wind Precip. Elev Updated Type
                   

Watches & Warnings

Winter Storm Warning
Issued: 4:44 AM AKST Feb. 25, 2017 – National Weather Service

... Winter Storm Warning remains in effect until 6 am akst
Sunday...

* location... north of Cape Krusenstern

* snow... 5 to 10 inches.

* Winds... southeast winds 20 to 30 mph with gusts to 45 mph.

* Visibility... one half mile or less at times.

* Timing... snow will develop this morning and will become heavy at
times late this morning and afternoon. Winds will also increase
this morning with the strongest winds and worst visibilities in
blowing snow occurring from this afternoon through tonight.
Conditions will improve Sunday morning as winds subside.

* Impacts... visibility will be greatly reduced. Travel and
outdoor activities will be difficult.

Precautionary/preparedness actions...

A Winter Storm Warning means one or more significant winter
weather hazards are occurring or expected.